Time;durP1;ratioP1;P1;durP2;ratioP2;P2;SDS_P1;SDS_P2;PMS_P1;PMS_P2;Temp;Humidity;BMP_temperature;BMP_pressure;BME280_temperature;BME280_humidity;BME280_pressure;Samples;Min_cycle;Max_cycle;Signal;HPM_P1;HPM_P2
2022/03/11 00:03:57;;;;;;;;;;;;;;;1.02;100.00;99068.88;10372537;28;20302;-80
2022/03/11 00:08:58;;;;;;;;;;;;;;;0.99;100.00;99069.34;10350199;28;19980;-81
2022/03/11 00:13:58;;;;;;;;;;;;;;;0.88;100.00;99062.31;10391041;28;19913;-82
2022/03/11 00:19:00;;;;;;;;;;;;;;;0.80;100.00;99071.44;10364485;28;19927;-81
2022/03/11 00:24:02;;;;;;;;;;;;;;;0.74;100.00;99072.41;10443312;28;19913;-82
2022/03/11 00:29:07;;;;;;;;;;;;;;;0.69;100.00;99074.94;10372612;28;19925;-81
2022/03/11 00:34:31;;;;;;;;;;;;;;;0.73;100.00;99066.31;10388661;28;19921;-80
2022/03/11 00:39:31;;;;;;;;;;;;;;;0.58;100.00;99073.97;10403738;28;19921;-81
2022/03/11 00:44:32;;;;;;;;;;;;;;;0.43;100.00;99069.22;10345873;28;19938;-78
2022/03/11 00:49:32;;;;;;;;;;;;;;;0.39;100.00;99059.38;10349130;28;19934;-78
2022/03/11 00:54:33;;;;;;;;;;;;;;;0.32;100.00;99059.53;10343099;28;19996;-79
2022/03/11 00:59:33;;;;;;;;;;;;;;;0.18;100.00;99063.47;10386024;28;19925;-80
2022/03/11 01:04:34;;;;;;;;;;;;;;;0.09;100.00;99063.06;10387295;28;19924;-80
2022/03/11 01:09:35;;;;;;;;;;;;;;;0.02;100.00;99061.59;10394563;28;20344;-79
2022/03/11 01:14:35;;;;;;;;;;;;;;;-0.03;100.00;99059.66;10372115;28;20354;-79
2022/03/11 01:19:35;;;;;;;;;;;;;;;-0.07;100.00;99053.25;10376815;28;19923;-79
2022/03/11 01:24:38;;;;;;;;;;;;;;;-0.12;100.00;99043.38;10386235;28;19945;-78
2022/03/11 01:29:39;;;;;;;;;;;;;;;-0.18;100.00;99043.53;10388889;28;19982;-77
2022/03/11 01:34:39;;;;;;;;;;;;;;;-0.18;100.00;99039.06;10355994;28;19925;-81
2022/03/11 01:39:39;;;;;;;;;;;;;;;-0.22;100.00;99037.91;10367310;28;19933;-78
2022/03/11 01:44:40;;;;;;;;;;;;;;;-0.26;100.00;99038.63;10382384;28;19935;-78
2022/03/11 01:49:40;;;;;;;;;;;;;;;-0.40;100.00;99027.53;10390184;28;20024;-79
2022/03/11 01:54:41;;;;;;;;;;;;;;;-0.55;100.00;99041.19;10387469;28;19921;-80
2022/03/11 01:59:43;;;;;;;;;;;;;;;-0.52;100.00;99032.03;10391476;28;19936;-79
2022/03/11 02:04:44;;;;;;;;;;;;;;;-0.54;100.00;99036.75;10381115;28;19940;-80
2022/03/11 02:09:44;;;;;;;;;;;;;;;-0.68;100.00;99036.97;10350300;28;19932;-80
2022/03/11 02:14:45;;;;;;;;;;;;;;;-0.71;100.00;99031.38;10380531;28;21015;-79
2022/03/11 02:19:47;;;;;;;;;;;;;;;-0.75;100.00;99025.75;10377081;28;20195;-80
2022/03/11 02:24:49;;;;;;;;;;;;;;;-0.83;100.00;99026.09;10345501;28;20155;-78
2022/03/11 02:29:51;;;;;;;;;;;;;;;-0.88;100.00;99026.00;10344596;28;20361;-78
2022/03/11 02:34:51;;;;;;;;;;;;;;;-0.84;100.00;99021.06;10386729;28;20026;-79
2022/03/11 02:39:55;;;;;;;;;;;;;;;-0.82;100.00;99016.34;10349255;28;19927;-80
2022/03/11 02:44:58;;;;;;;;;;;;;;;-0.89;100.00;99000.69;10356089;28;20391;-79
2022/03/11 02:49:58;;;;;;;;;;;;;;;-0.91;100.00;99002.75;10334626;28;19967;-79
2022/03/11 02:54:59;;;;;;;;;;;;;;;-0.84;100.00;99002.59;10380624;28;20346;-78
2022/03/11 02:59:59;;;;;;;;;;;;;;;-1.01;100.00;99002.50;10389929;28;19951;-78
2022/03/11 03:05:01;;;;;;;;;;;;;;;-1.05;100.00;98996.09;11320952;23;20689;-80
2022/03/11 03:10:02;;;;;;;;;;;;;;;-1.07;100.00;98995.53;10169888;28;20412;-80
2022/03/11 03:15:03;;;;;;;;;;;;;;;-1.00;98.35;98994.41;10154039;28;19971;-80
2022/03/11 03:20:04;;;;;;;;;;;;;;;-1.21;99.74;98995.75;10154771;28;19935;-79
2022/03/11 03:25:05;;;;;;;;;;;;;;;-1.42;100.00;98990.25;10156381;28;20039;-81
2022/03/11 03:30:06;;;;;;;;;;;;;;;-1.54;99.84;98980.50;10165091;28;20368;-80
2022/03/11 03:35:06;;;;;;;;;;;;;;;-1.59;100.00;98980.38;10161420;29;20354;-79
2022/03/11 03:40:07;;;;;;;;;;;;;;;-1.71;100.00;98987.47;10157418;28;19934;-79
2022/03/11 03:45:09;;;;;;;;;;;;;;;-1.84;100.00;98983.16;10142275;28;20065;-78
2022/03/11 03:50:09;;;;;;;;;;;;;;;-1.91;100.00;98982.50;10161121;28;19935;-79
2022/03/11 03:55:11;;;;;;;;;;;;;;;-1.90;100.00;98975.41;10157475;28;19935;-79
2022/03/11 04:00:13;;;;;;;;;;;;;;;-2.05;100.00;98975.81;10163975;28;19927;-79
2022/03/11 04:05:16;;;;;;;;;;;;;;;-2.13;100.00;98971.66;10176993;28;19931;-80
2022/03/11 04:10:20;;;;;;;;;;;;;;;-2.18;100.00;98978.63;10157740;28;19939;-80
2022/03/11 04:15:20;;;;;;;;;;;;;;;-2.30;100.00;98971.47;10161620;28;19942;-79
2022/03/11 04:20:21;;;;;;;;;;;;;;;-2.40;100.00;98978.28;10163661;28;19931;-80
2022/03/11 04:25:23;;;;;;;;;;;;;;;-2.50;100.00;98978.00;10151970;28;19927;-79
2022/03/11 04:30:23;;;;;;;;;;;;;;;-2.58;99.03;98965.97;10171518;28;19935;-79
2022/03/11 04:35:24;;;;;;;;;;;;;;;-2.57;100.00;98972.81;10175269;28;19931;-79
2022/03/11 04:40:24;;;;;;;;;;;;;;;-2.52;97.65;98969.53;10155720;28;20746;-78
2022/03/11 04:45:26;;;;;;;;;;;;;;;-2.45;93.54;98965.81;10169878;28;19927;-82
2022/03/11 04:50:26;;;;;;;;;;;;;;;-2.48;92.50;98960.19;10157401;28;19931;-78
2022/03/11 04:55:27;;;;;;;;;;;;;;;-2.50;94.21;98956.97;10187132;28;19970;-79
2022/03/11 05:00:27;;;;;;;;;;;;;;;-2.54;90.70;98964.53;10186202;28;20074;-81
2022/03/11 05:05:29;;;;;;;;;;;;;;;-2.58;95.47;98955.47;10186925;28;19938;-81
2022/03/11 05:10:30;;;;;;;;;;;;;;;-2.54;89.00;98958.47;10183695;28;19986;-82
2022/03/11 05:15:38;;;;;;;;;;;;;;;-2.68;90.29;98955.19;10181857;28;19919;-82
2022/03/11 05:20:38;;;;;;;;;;;;;;;-2.76;87.32;98948.38;10198778;28;19931;-82
2022/03/11 05:25:40;;;;;;;;;;;;;;;-2.75;90.21;98954.44;10193563;28;19930;-79
2022/03/11 05:30:40;;;;;;;;;;;;;;;-2.74;86.98;98959.50;10176598;28;19931;-80
2022/03/11 05:35:43;;;;;;;;;;;;;;;-2.73;84.80;98952.44;10147315;28;19918;-80
2022/03/11 05:40:44;;;;;;;;;;;;;;;-2.67;84.89;98962.84;10167963;28;20453;-81
2022/03/11 05:45:45;;;;;;;;;;;;;;;-2.70;81.23;98965.09;10222806;28;19968;-81
2022/03/11 05:50:46;;;;;;;;;;;;;;;-2.73;85.71;98968.97;10184875;28;19927;-82
2022/03/11 05:55:46;;;;;;;;;;;;;;;-2.64;81.65;98972.13;10188358;28;19950;-79
2022/03/11 06:00:47;;;;;;;;;;;;;;;-2.48;77.77;98976.75;10170986;28;19931;-78
2022/03/11 06:05:50;;;;;;;;;;;;;;;-2.37;80.64;98989.19;10155567;28;19927;-79
2022/03/11 06:10:56;;;;;;;;;;;;;;;-2.16;78.69;98984.47;10154624;28;20375;-78
2022/03/11 06:15:56;;;;;;;;;;;;;;;-2.07;77.25;98989.19;10146121;28;19931;-77
2022/03/11 06:20:57;;;;;;;;;;;;;;;-1.84;75.07;98983.16;10161715;28;19928;-78
2022/03/11 06:25:58;;;;;;;;;;;;;;;-1.69;72.54;98987.22;10158286;28;20361;-79
2022/03/11 06:30:59;;;;;;;;;;;;;;;-1.41;69.15;98981.31;10160421;28;19939;-78
2022/03/11 06:35:59;;;;;;;;;;;;;;;-1.23;67.99;98979.38;10134314;28;20285;-77
2022/03/11 06:41:00;;;;;;;;;;;;;;;-0.91;64.75;98986.94;10156186;28;19943;-79
2022/03/11 06:46:00;;;;;;;;;;;;;;;0.18;58.16;98979.84;10145503;28;19982;-79
2022/03/11 06:51:04;;;;;;;;;;;;;;;0.99;56.24;98982.94;10185041;28;19934;-78
2022/03/11 06:56:05;;;;;;;;;;;;;;;0.65;54.67;98990.09;10146633;28;19931;-77
2022/03/11 07:01:05;;;;;;;;;;;;;;;0.66;57.80;98990.91;10163234;28;19932;-78
2022/03/11 07:06:05;;;;;;;;;;;;;;;0.40;54.89;98985.22;10151169;28;19934;-79
2022/03/11 07:11:07;;;;;;;;;;;;;;;0.57;54.08;98990.50;10140752;28;19931;-77
2022/03/11 07:16:09;;;;;;;;;;;;;;;0.75;54.11;98990.25;10141898;28;19949;-75
2022/03/11 07:21:10;;;;;;;;;;;;;;;0.79;51.73;98985.28;10149169;28;19967;-75
2022/03/11 07:26:12;;;;;;;;;;;;;;;1.03;51.92;98986.69;10153750;28;19997;-77
2022/03/11 07:31:13;;;;;;;;;;;;;;;1.24;51.93;98993.06;10134891;28;19981;-77
2022/03/11 07:36:13;;;;;;;;;;;;;;;1.02;52.01;98992.22;10156411;28;20049;-76
2022/03/11 07:41:15;;;;;;;;;;;;;;;1.00;51.66;98989.00;10153200;28;19931;-76
2022/03/11 07:46:15;;;;;;;;;;;;;;;1.15;50.42;98994.53;10165187;28;19931;-78
2022/03/11 07:51:16;;;;;;;;;;;;;;;1.21;50.62;98996.19;10173019;28;19927;-76
2022/03/11 07:56:17;;;;;;;;;;;;;;;1.30;49.07;98986.81;10161163;28;19915;-76
2022/03/11 08:01:17;;;;;;;;;;;;;;;1.65;49.27;98993.59;10191913;28;19932;-77
2022/03/11 08:06:18;;;;;;;;;;;;;;;1.71;48.18;98988.06;10170306;28;19935;-75
2022/03/11 08:11:19;;;;;;;;;;;;;;;1.78;47.64;98987.91;10143651;28;19954;-77
2022/03/11 08:16:20;;;;;;;;;;;;;;;2.01;46.67;98984.16;10133310;28;19943;-77
2022/03/11 08:21:21;;;;;;;;;;;;;;;2.20;47.77;98981.97;10128800;28;20347;-76
2022/03/11 08:26:23;;;;;;;;;;;;;;;2.62;48.39;98979.41;10137395;28;20064;-78
2022/03/11 08:31:24;;;;;;;;;;;;;;;2.69;45.26;98973.91;10160271;28;19927;-77
2022/03/11 08:36:24;;;;;;;;;;;;;;;2.62;43.75;98978.63;10165882;28;20985;-78
2022/03/11 08:41:27;;;;;;;;;;;;;;;3.06;45.01;98969.38;10156603;28;19932;-76
2022/03/11 08:46:29;;;;;;;;;;;;;;;2.96;44.17;98968.53;10181175;28;19931;-78
2022/03/11 08:51:29;;;;;;;;;;;;;;;3.31;43.05;98967.91;10169796;28;19955;-78
2022/03/11 08:56:31;;;;;;;;;;;;;;;3.32;44.73;98983.56;10181836;28;19992;-78
2022/03/11 09:01:31;;;;;;;;;;;;;;;3.65;43.83;98971.75;10171418;28;20268;-78
2022/03/11 09:06:33;;;;;;;;;;;;;;;3.84;42.49;98966.78;10158163;28;19931;-77
2022/03/11 09:11:35;;;;;;;;;;;;;;;3.91;43.90;98963.88;10151624;28;20010;-77
2022/03/11 09:16:35;;;;;;;;;;;;;;;4.09;40.83;98955.41;10177975;28;19932;-76
2022/03/11 09:21:36;;;;;;;;;;;;;;;4.37;40.74;98938.16;10187999;28;19936;-77
2022/03/11 09:26:36;;;;;;;;;;;;;;;4.49;39.64;98936.03;10165973;28;19943;-78
2022/03/11 09:31:37;;;;;;;;;;;;;;;4.74;40.59;98923.78;10148834;28;20025;-76
2022/03/11 09:36:38;;;;;;;;;;;;;;;5.04;37.29;98922.94;10149999;28;19931;-78
2022/03/11 09:41:39;;;;;;;;;;;;;;;5.43;35.78;98925.72;10128138;28;19986;-81
2022/03/11 09:46:40;;;;;;;;;;;;;;;5.77;35.67;98925.03;10138082;28;19931;-77
2022/03/11 09:51:41;;;;;;;;;;;;;;;5.99;32.66;98920.91;10144922;28;19931;-77
2022/03/11 09:56:42;;;;;;;;;;;;;;;6.33;36.21;98924.66;10142319;28;19936;-80
2022/03/11 10:01:43;;;;;;;;;;;;;;;6.35;35.35;98904.63;10132719;28;19966;-78
2022/03/11 10:06:46;;;;;;;;;;;;;;;6.43;33.34;98903.25;10145938;28;20374;-77
2022/03/11 10:11:49;;;;;;;;;;;;;;;6.71;30.34;98905.13;10136980;28;19927;-79
2022/03/11 10:16:50;;;;;;;;;;;;;;;6.90;32.02;98901.72;10160575;28;19931;-80
2022/03/11 10:21:51;;;;;;;;;;;;;;;6.76;32.34;98894.38;10107132;28;21347;-77
2022/03/11 10:26:52;;;;;;;;;;;;;;;7.24;32.30;98885.59;10138395;28;19979;-78
2022/03/11 10:31:54;;;;;;;;;;;;;;;7.44;30.10;98882.66;10210010;28;20014;-79
2022/03/11 10:36:59;;;;;;;;;;;;;;;7.55;31.23;98877.97;10140549;28;20377;-78
2022/03/11 10:42:12;;;;;;;;;;;;;;;8.01;29.92;98885.34;10137492;28;19931;-79
2022/03/11 10:47:20;;;;;;;;;;;;;;;8.16;28.44;98874.41;10137033;28;19942;-82
2022/03/11 10:52:31;;;;;;;;;;;;;;;8.53;28.84;98874.34;10169934;28;19990;-81
2022/03/11 10:57:34;;;;;;;;;;;;;;;8.77;28.67;98879.53;10143936;28;19935;-81
2022/03/11 11:02:35;;;;;;;;;;;;;;;9.01;27.99;98873.19;10137993;28;19927;-77
2022/03/11 11:07:35;;;;;;;;;;;;;;;9.37;27.71;98873.28;10126214;28;20017;-77
2022/03/11 11:12:36;;;;;;;;;;;;;;;9.69;24.97;98857.03;10140534;28;19935;-77
2022/03/11 11:17:38;;;;;;;;;;;;;;;9.66;26.34;98849.59;10133639;28;19986;-78
2022/03/11 11:22:40;;;;;;;;;;;;;;;9.89;27.69;98846.94;10136644;28;20739;-76
2022/03/11 11:27:41;;;;;;;;;;;;;;;10.25;26.19;98845.03;10126684;28;19959;-77
2022/03/11 11:32:44;;;;;;;;;;;;;;;10.29;26.25;98825.63;10145602;28;20143;-78
2022/03/11 11:37:44;;;;;;;;;;;;;;;10.25;25.63;98820.88;10126632;28;20349;-78
2022/03/11 11:43:06;;;;;;;;;;;;;;;10.03;24.14;98828.09;10126756;28;19967;-78
2022/03/11 11:48:06;;;;;;;;;;;;;;;10.17;23.82;98807.38;10134991;28;19942;-79
2022/03/11 11:53:07;;;;;;;;;;;;;;;10.95;25.63;98797.78;10131082;28;19931;-79
2022/03/11 11:58:25;;;;;;;;;;;;;;;11.15;25.34;98787.53;10154684;28;19934;-81
2022/03/11 12:03:44;;;;;;;;;;;;;;;10.72;22.95;98783.66;10142189;28;19998;-80
2022/03/11 12:08:45;;;;;;;;;;;;;;;11.64;23.98;98789.03;10127605;28;20501;-78
2022/03/11 12:14:00;;;;;;;;;;;;;;;11.59;26.47;98773.03;10131943;28;19942;-78
2022/03/11 12:19:00;;;;;;;;;;;;;;;11.87;22.43;98768.91;10150987;28;19941;-77
2022/03/11 12:24:20;;;;;;;;;;;;;;;11.96;22.73;98767.00;10135901;28;20034;-78
2022/03/11 12:29:32;;;;;;;;;;;;;;;11.57;23.48;98769.88;10140955;28;19935;-77
2022/03/11 12:34:33;;;;;;;;;;;;;;;11.79;24.97;98750.88;10196647;28;19935;-79
2022/03/11 12:39:35;;;;;;;;;;;;;;;12.06;24.14;98744.34;10163963;28;19962;-77
2022/03/11 12:44:46;;;;;;;;;;;;;;;12.38;24.79;98742.19;10168327;28;19969;-80
2022/03/11 12:49:58;;;;;;;;;;;;;;;12.45;23.24;98724.44;10197217;28;19927;-78
2022/03/11 12:54:59;;;;;;;;;;;;;;;12.08;22.10;98726.00;10162576;28;19927;-79
2022/03/11 12:59:59;;;;;;;;;;;;;;;12.38;20.94;98723.38;10164254;28;19931;-76
2022/03/11 13:04:59;;;;;;;;;;;;;;;12.86;22.20;98724.84;10150451;28;20730;-78
2022/03/11 13:10:13;;;;;;;;;;;;;;;13.42;20.76;98722.72;10152695;28;19938;-79
2022/03/11 13:15:24;;;;;;;;;;;;;;;14.29;20.49;98704.53;10174458;28;19926;-79
2022/03/11 13:20:32;;;;;;;;;;;;;;;14.04;20.20;98703.69;10140650;28;19934;-82
2022/03/11 13:25:33;;;;;;;;;;;;;;;13.74;22.62;98692.28;10156075;28;20393;-76
2022/03/11 13:30:35;;;;;;;;;;;;;;;14.91;20.89;98694.50;10138848;28;19930;-86
2022/03/11 13:35:36;;;;;;;;;;;;;;;14.31;21.45;98691.47;10158679;28;19927;-78
2022/03/11 13:40:37;;;;;;;;;;;;;;;13.71;21.21;98682.13;10155517;28;19927;-78
2022/03/11 13:45:50;;;;;;;;;;;;;;;14.76;21.55;98691.34;10149992;28;19932;-78
2022/03/11 13:50:58;;;;;;;;;;;;;;;13.93;19.55;98686.38;10146679;28;19931;-78
2022/03/11 13:56:05;;;;;;;;;;;;;;;13.90;20.35;98678.94;10158933;28;20302;-78
2022/03/11 14:01:09;;;;;;;;;;;;;;;12.65;20.96;98670.97;10141591;28;19935;-78
2022/03/11 14:06:09;;;;;;;;;;;;;;;13.02;22.13;98682.75;10157254;28;19931;-79
2022/03/11 14:11:09;;;;;;;;;;;;;;;12.78;24.14;98667.22;10161348;28;20033;-77
2022/03/11 14:16:10;;;;;;;;;;;;;;;12.26;23.78;98664.84;10163338;28;20016;-78
2022/03/11 14:21:12;;;;;;;;;;;;;;;12.98;22.35;98658.34;10154699;28;20008;-78
2022/03/11 14:26:13;;;;;;;;;;;;;;;12.62;24.79;98653.56;10155034;28;19927;-79
2022/03/11 14:31:13;;;;;;;;;;;;;;;12.18;24.41;98658.38;10158866;28;19927;-81
2022/03/11 14:36:14;;;;;;;;;;;;;;;12.06;22.68;98658.25;10157967;28;20010;-84
2022/03/11 14:41:15;;;;;;;;;;;;;;;11.10;23.88;98651.50;10167516;28;19934;-77
2022/03/11 14:46:17;;;;;;;;;;;;;;;10.80;24.65;98648.66;10168851;28;19927;-82
2022/03/11 14:51:17;;;;;;;;;;;;;;;10.36;25.69;98641.63;10162927;28;19935;-75
2022/03/11 14:56:18;;;;;;;;;;;;;;;10.25;26.28;98648.41;10176199;28;20047;-78
2022/03/11 15:01:18;;;;;;;;;;;;;;;10.20;25.90;98645.81;10165616;28;20006;-79
2022/03/11 15:06:19;;;;;;;;;;;;;;;10.08;27.21;98641.03;10153889;28;19931;-77
2022/03/11 15:11:20;;;;;;;;;;;;;;;9.87;27.30;98634.63;10151556;28;20565;-76
2022/03/11 15:16:20;;;;;;;;;;;;;;;9.90;26.78;98645.56;10160059;28;19937;-76
2022/03/11 15:21:21;;;;;;;;;;;;;;;9.71;28.65;98636.94;10151296;28;20420;-76
2022/03/11 15:26:22;;;;;;;;;;;;;;;9.54;28.12;98639.53;10152380;28;19931;-79
2022/03/11 15:31:23;;;;;;;;;;;;;;;9.40;28.58;98626.19;10142646;28;19943;-77
2022/03/11 15:36:24;;;;;;;;;;;;;;;9.32;28.99;98625.03;10153765;28;20002;-78
2022/03/11 15:41:24;;;;;;;;;;;;;;;9.27;29.94;98621.72;10145378;28;19938;-77
2022/03/11 15:46:27;;;;;;;;;;;;;;;9.10;29.19;98609.00;10155294;28;19931;-76
2022/03/11 15:51:29;;;;;;;;;;;;;;;9.05;30.18;98623.31;10145321;28;19958;-76
2022/03/11 15:56:29;;;;;;;;;;;;;;;8.92;30.44;98613.44;10156139;28;20025;-76
2022/03/11 16:01:30;;;;;;;;;;;;;;;8.88;30.03;98625.84;10171443;28;19977;-78
2022/03/11 16:06:30;;;;;;;;;;;;;;;8.71;30.41;98626.50;10140552;28;20017;-77
2022/03/11 16:11:31;;;;;;;;;;;;;;;8.65;31.28;98617.00;10163951;28;19928;-79
2022/03/11 16:16:31;;;;;;;;;;;;;;;8.62;31.12;98616.81;10172755;28;19942;-78
2022/03/11 16:21:32;;;;;;;;;;;;;;;8.49;31.60;98624.56;10181292;28;19942;-77
2022/03/11 16:26:33;;;;;;;;;;;;;;;8.26;32.39;98623.69;10170500;28;20260;-78
2022/03/11 16:31:33;;;;;;;;;;;;;;;8.19;31.68;98619.81;10153746;28;19931;-77
2022/03/11 16:36:33;;;;;;;;;;;;;;;8.06;32.85;98631.31;10147222;28;19941;-77
2022/03/11 16:41:37;;;;;;;;;;;;;;;7.86;32.33;98621.78;10156623;28;19935;-78
2022/03/11 16:46:37;;;;;;;;;;;;;;;7.74;33.12;98629.50;10153095;28;19963;-78
2022/03/11 16:51:38;;;;;;;;;;;;;;;7.61;32.82;98631.09;10158960;28;19975;-79
2022/03/11 16:56:39;;;;;;;;;;;;;;;7.56;33.39;98636.50;10164461;28;19935;-82
2022/03/11 17:01:40;;;;;;;;;;;;;;;7.23;34.35;98635.75;10157876;28;19935;-77
2022/03/11 17:06:41;;;;;;;;;;;;;;;6.99;35.24;98647.31;10150166;28;19974;-79
2022/03/11 17:11:42;;;;;;;;;;;;;;;6.76;35.25;98645.50;10167599;28;19938;-78
2022/03/11 17:16:43;;;;;;;;;;;;;;;6.60;35.33;98660.16;10171630;28;20313;-79
2022/03/11 17:21:44;;;;;;;;;;;;;;;6.40;36.04;98645.19;10166527;28;19931;-81
2022/03/11 17:26:46;;;;;;;;;;;;;;;6.28;35.69;98657.06;10164269;28;19931;-79
2022/03/11 17:31:47;;;;;;;;;;;;;;;6.10;35.22;98654.34;10158057;28;19938;-78
2022/03/11 17:36:47;;;;;;;;;;;;;;;5.94;35.21;98662.53;10155816;28;19942;-76
2022/03/11 17:41:50;;;;;;;;;;;;;;;5.82;35.35;98670.06;10138844;28;19928;-76
2022/03/11 17:46:54;;;;;;;;;;;;;;;5.61;36.39;98672.13;10149774;28;20386;-77
2022/03/11 17:51:56;;;;;;;;;;;;;;;5.40;36.60;98684.03;10160038;28;19931;-79
2022/03/11 17:56:59;;;;;;;;;;;;;;;5.35;36.65;98673.41;10154652;28;19951;-78
2022/03/11 18:02:02;;;;;;;;;;;;;;;5.22;36.17;98672.19;10122029;28;19931;-77
2022/03/11 18:07:04;;;;;;;;;;;;;;;5.17;34.74;98682.88;10158542;28;20831;-77
2022/03/11 18:12:05;;;;;;;;;;;;;;;4.98;34.97;98684.59;10155869;28;19946;-82
2022/03/11 18:17:07;;;;;;;;;;;;;;;4.75;35.06;98683.38;10153770;28;19931;-78
2022/03/11 18:22:09;;;;;;;;;;;;;;;4.65;35.54;98680.78;10162341;28;19931;-77
2022/03/11 18:27:10;;;;;;;;;;;;;;;4.48;36.27;98697.06;10152555;28;20089;-77
2022/03/11 18:32:13;;;;;;;;;;;;;;;4.42;35.32;98706.94;10155286;28;20018;-80
2022/03/11 18:37:17;;;;;;;;;;;;;;;4.08;36.10;98696.16;10152575;28;19938;-79
2022/03/11 18:42:19;;;;;;;;;;;;;;;3.75;35.93;98684.31;10157888;28;19931;-77
2022/03/11 18:47:20;;;;;;;;;;;;;;;3.75;36.98;98694.91;10161358;28;19938;-76
2022/03/11 18:52:20;;;;;;;;;;;;;;;3.56;36.62;98699.16;10155944;28;19935;-76
2022/03/11 18:57:21;;;;;;;;;;;;;;;3.47;37.55;98692.78;10172735;28;19935;-77
2022/03/11 19:02:21;;;;;;;;;;;;;;;3.51;36.58;98688.56;10154023;28;19931;-78
2022/03/11 19:07:21;;;;;;;;;;;;;;;3.52;36.74;98701.56;10157495;28;19931;-79
2022/03/11 19:12:22;;;;;;;;;;;;;;;3.33;36.76;98697.84;10160010;28;20034;-77
2022/03/11 19:17:22;;;;;;;;;;;;;;;3.27;36.75;98702.34;10171258;28;20474;-80
2022/03/11 19:22:23;;;;;;;;;;;;;;;3.16;36.48;98714.00;10163504;28;19997;-76
2022/03/11 19:27:26;;;;;;;;;;;;;;;2.80;37.79;98710.50;10154416;28;20378;-78
2022/03/11 19:32:33;;;;;;;;;;;;;;;2.77;37.64;98716.34;10160363;28;19935;-81
2022/03/11 19:37:34;;;;;;;;;;;;;;;2.56;38.18;98723.41;10143773;28;19932;-79
2022/03/11 19:42:34;;;;;;;;;;;;;;;2.52;38.19;98731.06;10170617;28;20262;-81
2022/03/11 19:47:38;;;;;;;;;;;;;;;2.34;38.55;98731.53;10169979;28;19943;-78
2022/03/11 19:52:39;;;;;;;;;;;;;;;2.18;38.71;98737.78;10178925;28;19993;-76
2022/03/11 19:57:41;;;;;;;;;;;;;;;2.03;38.41;98740.38;10158637;28;19938;-77
2022/03/11 20:02:42;;;;;;;;;;;;;;;2.07;38.13;98744.09;10148062;28;19959;-76
2022/03/11 20:07:50;;;;;;;;;;;;;;;1.92;38.25;98739.50;10163715;28;20028;-76
2022/03/11 20:12:51;;;;;;;;;;;;;;;1.87;39.23;98742.13;10160578;28;19927;-77
2022/03/11 20:17:52;;;;;;;;;;;;;;;1.69;38.60;98752.03;10166327;28;20281;-78
2022/03/11 20:22:54;;;;;;;;;;;;;;;1.58;39.21;98750.38;10150680;28;19931;-78
2022/03/11 20:27:54;;;;;;;;;;;;;;;1.35;39.29;98748.06;10145133;28;19947;-77
2022/03/11 20:32:55;;;;;;;;;;;;;;;1.28;38.20;98743.00;10142685;28;19946;-81
2022/03/11 20:37:55;;;;;;;;;;;;;;;1.28;38.17;98747.44;10133206;28;20033;-78
2022/03/11 20:42:56;;;;;;;;;;;;;;;1.19;38.52;98756.88;10160118;28;20437;-76
2022/03/11 20:47:58;;;;;;;;;;;;;;;1.29;38.13;98746.44;10155738;28;19927;-79
2022/03/11 20:52:58;;;;;;;;;;;;;;;1.11;39.16;98753.66;10161219;28;19958;-77
2022/03/11 20:57:59;;;;;;;;;;;;;;;1.02;39.36;98755.16;10141626;28;19932;-76
2022/03/11 21:02:59;;;;;;;;;;;;;;;0.89;38.92;98752.88;10165468;28;19931;-78
2022/03/11 21:08:00;;;;;;;;;;;;;;;0.80;39.13;98759.66;10170479;28;20033;-77
2022/03/11 21:13:00;;;;;;;;;;;;;;;0.76;37.58;98753.28;10169759;28;19938;-78
2022/03/11 21:18:03;;;;;;;;;;;;;;;0.67;37.96;98750.28;10182240;28;19935;-79
2022/03/11 21:23:05;;;;;;;;;;;;;;;0.59;38.62;98745.41;10187795;28;19930;-76
2022/03/11 21:28:05;;;;;;;;;;;;;;;0.65;38.00;98741.00;10198626;28;19922;-79
2022/03/11 21:33:07;;;;;;;;;;;;;;;0.56;38.43;98746.72;10176029;28;19931;-77
2022/03/11 21:38:08;;;;;;;;;;;;;;;0.35;38.33;98751.97;10159120;28;19935;-77
2022/03/11 21:43:12;;;;;;;;;;;;;;;0.26;38.11;98757.69;10169470;28;19930;-78
2022/03/11 21:48:14;;;;;;;;;;;;;;;0.35;37.74;98757.25;10149282;28;19931;-78
2022/03/11 21:53:14;;;;;;;;;;;;;;;0.15;38.65;98758.59;10147533;28;19985;-76
2022/03/11 21:58:16;;;;;;;;;;;;;;;0.04;38.80;98767.41;10168611;28;19930;-77
2022/03/11 22:03:17;;;;;;;;;;;;;;;-0.04;40.34;98765.19;10177414;28;19927;-76
2022/03/11 22:08:18;;;;;;;;;;;;;;;-0.15;39.30;98773.97;10150772;28;19945;-80
2022/03/11 22:13:20;;;;;;;;;;;;;;;-0.29;39.51;98769.03;10153104;28;20309;-77
2022/03/11 22:18:21;;;;;;;;;;;;;;;-0.29;39.21;98769.03;10157522;28;19931;-79
2022/03/11 22:23:22;;;;;;;;;;;;;;;-0.31;39.52;98768.47;10146282;28;19939;-75
2022/03/11 22:28:23;;;;;;;;;;;;;;;-0.39;39.59;98763.59;10159861;28;19936;-76
2022/03/11 22:33:25;;;;;;;;;;;;;;;-0.44;38.92;98770.63;10149472;28;19955;-77
2022/03/11 22:38:27;;;;;;;;;;;;;;;-0.49;38.46;98767.91;10158646;28;19985;-76
2022/03/11 22:43:27;;;;;;;;;;;;;;;-0.44;38.64;98768.00;10155063;28;19942;-75
2022/03/11 22:48:28;;;;;;;;;;;;;;;-0.40;38.46;98772.53;10159201;28;19927;-76
2022/03/11 22:53:35;;;;;;;;;;;;;;;-0.47;38.68;98777.16;10144897;28;20335;-75
2022/03/11 22:58:37;;;;;;;;;;;;;;;-0.53;38.91;98788.69;10153301;28;19931;-76
2022/03/11 23:03:41;;;;;;;;;;;;;;;-0.67;37.91;98787.38;10152675;28;19931;-76
2022/03/11 23:14:02;;;;;;;;;;;;;;;-0.81;38.88;98797.41;10153784;28;19931;-77
2022/03/11 23:19:02;;;;;;;;;;;;;;;-0.90;40.22;98797.00;10184526;28;19931;-75
2022/03/11 23:24:03;;;;;;;;;;;;;;;-0.95;39.57;98785.56;10162989;28;19938;-78
2022/03/11 23:29:03;;;;;;;;;;;;;;;-0.96;38.78;98790.03;10150307;28;20353;-76
2022/03/11 23:34:05;;;;;;;;;;;;;;;-0.97;40.38;98790.25;10143140;28;19978;-76
2022/03/11 23:39:06;;;;;;;;;;;;;;;-1.04;39.93;98793.03;10147384;28;20390;-78
2022/03/11 23:44:08;;;;;;;;;;;;;;;-0.99;39.86;98797.59;10168257;28;19931;-75
2022/03/11 23:49:11;;;;;;;;;;;;;;;-1.02;38.18;98793.59;10158346;28;19967;-77
2022/03/11 23:54:13;;;;;;;;;;;;;;;-1.07;39.21;98787.44;10147077;28;20110;-76
2022/03/11 23:59:14;;;;;;;;;;;;;;;-1.09;39.96;98790.31;10144904;28;19927;-76
